Terminal Aerodrome Forecast
Issued by NWS Wilmington, OH

Current Version | Previous Version | Graphics & Text | Print | Product List | Glossary On
Versions: 1 2 3 4 5 6 7 8 9 10 11 12 13 14 15 16 17 18 19 20 21 22 23 24 25
598
FTUS41 KILN 092048 AAA
TAFCVG
TAF AMD
KCVG 092048Z 0921/1024 27009KT P6SM -SHSN OVC030
     FM100000 28005KT P6SM BKN035
     FM101200 25004KT P6SM BKN080
     FM102000 20004KT P6SM SCT150=

USA.gov is the U.S. government's official web portal to all federal, state and local government web resources and services.